sensor_id;sensor_type;location;lat;lon;timestamp;pressure;altitude;pressure_sealevel;temperature;humidity
77702;BME280;66868;42.708;23.404;2024-01-30T00:01:39;97132.56;;;0.54;70.14
77702;BME280;66868;42.708;23.404;2024-01-30T00:04:04;97098.31;;;0.36;69.90
77702;BME280;66868;42.708;23.404;2024-01-30T00:06:30;97130.13;;;0.59;69.79
77702;BME280;66868;42.708;23.404;2024-01-30T00:08:56;97069.84;;;0.21;69.70
77702;BME280;66868;42.708;23.404;2024-01-30T00:11:22;97136.75;;;0.57;70.09
77702;BME280;66868;42.708;23.404;2024-01-30T00:13:48;97125.78;;;0.44;69.99
77702;BME280;66868;42.708;23.404;2024-01-30T00:16:20;97114.09;;;0.37;70.02
77702;BME280;66868;42.708;23.404;2024-01-30T00:18:47;97136.59;;;0.44;70.15
77702;BME280;66868;42.708;23.404;2024-01-30T00:21:13;97141.59;;;0.48;70.09
77702;BME280;66868;42.708;23.404;2024-01-30T00:23:38;97121.56;;;0.37;69.64
77702;BME280;66868;42.708;23.404;2024-01-30T00:26:03;97140.03;;;0.56;69.60
77702;BME280;66868;42.708;23.404;2024-01-30T00:28:30;97110.75;;;0.38;69.35
77702;BME280;66868;42.708;23.404;2024-01-30T00:30:55;97145.88;;;0.56;69.21
77702;BME280;66868;42.708;23.404;2024-01-30T00:33:21;97141.78;;;0.60;69.14
77702;BME280;66868;42.708;23.404;2024-01-30T00:35:47;97145.16;;;0.63;69.09
77702;BME280;66868;42.708;23.404;2024-01-30T00:38:12;97089.00;;;0.25;68.54
77702;BME280;66868;42.708;23.404;2024-01-30T00:40:38;97131.81;;;0.60;68.13
77702;BME280;66868;42.708;23.404;2024-01-30T00:43:03;97136.88;;;0.64;68.29
77702;BME280;66868;42.708;23.404;2024-01-30T00:45:29;97128.59;;;0.70;68.46
77702;BME280;66868;42.708;23.404;2024-01-30T00:47:54;97143.63;;;0.76;68.05
77702;BME280;66868;42.708;23.404;2024-01-30T00:50:20;97105.16;;;0.56;68.31
77702;BME280;66868;42.708;23.404;2024-01-30T00:52:45;97143.66;;;0.79;68.71
77702;BME280;66868;42.708;23.404;2024-01-30T00:55:11;97140.34;;;0.77;67.94
77702;BME280;66868;42.708;23.404;2024-01-30T00:57:36;97136.13;;;0.73;68.36
77702;BME280;66868;42.708;23.404;2024-01-30T01:00:03;97131.63;;;0.46;68.96
77702;BME280;66868;42.708;23.404;2024-01-30T01:02:28;97133.28;;;0.46;68.87
77702;BME280;66868;42.708;23.404;2024-01-30T01:04:54;97139.13;;;0.48;68.58
77702;BME280;66868;42.708;23.404;2024-01-30T01:07:19;97133.44;;;0.58;68.07
77702;BME280;66868;42.708;23.404;2024-01-30T01:09:45;97138.41;;;0.58;68.56
77702;BME280;66868;42.708;23.404;2024-01-30T01:12:10;97128.94;;;0.31;69.51
77702;BME280;66868;42.708;23.404;2024-01-30T01:14:36;97135.34;;;0.15;69.89
77702;BME280;66868;42.708;23.404;2024-01-30T01:17:01;97124.00;;;-0.23;70.79
77702;BME280;66868;42.708;23.404;2024-01-30T01:19:27;97133.06;;;-0.25;71.55
77702;BME280;66868;42.708;23.404;2024-01-30T01:21:52;97132.88;;;-0.37;72.21
77702;BME280;66868;42.708;23.404;2024-01-30T01:24:18;97137.75;;;-0.43;72.46
77702;BME280;66868;42.708;23.404;2024-01-30T01:26:44;97134.19;;;-0.58;72.67
77702;BME280;66868;42.708;23.404;2024-01-30T01:29:09;97133.47;;;-0.51;72.14
77702;BME280;66868;42.708;23.404;2024-01-30T01:31:37;97058.34;;;-0.84;71.97
77702;BME280;66868;42.708;23.404;2024-01-30T01:34:12;97133.81;;;-0.32;72.27
77702;BME280;66868;42.708;23.404;2024-01-30T01:36:39;97135.59;;;-0.22;71.49
77702;BME280;66868;42.708;23.404;2024-01-30T01:39:05;97128.16;;;-0.21;70.89
77702;BME280;66868;42.708;23.404;2024-01-30T01:41:31;97119.03;;;-0.23;70.39
77702;BME280;66868;42.708;23.404;2024-01-30T01:43:57;97135.00;;;-0.08;70.59
77702;BME280;66868;42.708;23.404;2024-01-30T01:46:23;97121.69;;;-0.11;70.52
77702;BME280;66868;42.708;23.404;2024-01-30T01:48:49;97135.97;;;0.02;70.18
77702;BME280;66868;42.708;23.404;2024-01-30T01:51:15;97134.41;;;0.07;70.00
77702;BME280;66868;42.708;23.404;2024-01-30T01:53:41;97121.09;;;0.05;69.87
77702;BME280;66868;42.708;23.404;2024-01-30T01:56:07;97135.31;;;0.12;69.82
77702;BME280;66868;42.708;23.404;2024-01-30T01:58:32;97138.63;;;0.13;70.03
77702;BME280;66868;42.708;23.404;2024-01-30T02:00:58;97123.50;;;-0.01;69.97
77702;BME280;66868;42.708;23.404;2024-01-30T02:03:24;97142.78;;;0.12;70.02
77702;BME280;66868;42.708;23.404;2024-01-30T02:05:52;97141.13;;;0.14;70.36
77702;BME280;66868;42.708;23.404;2024-01-30T02:08:18;97146.09;;;0.13;69.79
77702;BME280;66868;42.708;23.404;2024-01-30T02:10:43;97132.84;;;0.15;69.88
77702;BME280;66868;42.708;23.404;2024-01-30T02:13:09;97147.22;;;0.33;69.68
77702;BME280;66868;42.708;23.404;2024-01-30T02:15:34;97143.91;;;0.32;68.96
77702;BME280;66868;42.708;23.404;2024-01-30T02:18:00;97127.25;;;0.30;69.07
77702;BME280;66868;42.708;23.404;2024-01-30T02:20:28;97131.56;;;0.40;68.76
77702;BME280;66868;42.708;23.404;2024-01-30T02:22:55;97144.09;;;0.46;68.82
77702;BME280;66868;42.708;23.404;2024-01-30T02:25:30;97129.91;;;0.40;68.52
77702;BME280;66868;42.708;23.404;2024-01-30T02:27:56;97136.50;;;0.38;68.40
77702;BME280;66868;42.708;23.404;2024-01-30T02:30:21;97135.69;;;0.39;68.80
77702;BME280;66868;42.708;23.404;2024-01-30T02:32:47;97135.66;;;0.36;68.59
77702;BME280;66868;42.708;23.404;2024-01-30T02:35:12;97143.13;;;0.36;68.70
77702;BME280;66868;42.708;23.404;2024-01-30T02:37:37;97134.03;;;0.40;68.86
77702;BME280;66868;42.708;23.404;2024-01-30T02:40:04;97139.09;;;0.44;68.68
77702;BME280;66868;42.708;23.404;2024-01-30T02:42:29;97134.13;;;0.48;68.84
77702;BME280;66868;42.708;23.404;2024-01-30T02:44:55;97128.28;;;0.44;68.55
77702;BME280;66868;42.708;23.404;2024-01-30T02:47:20;97142.59;;;0.60;68.12
77702;BME280;66868;42.708;23.404;2024-01-30T02:49:46;97098.25;;;0.33;68.00
77702;BME280;66868;42.708;23.404;2024-01-30T02:52:11;97141.66;;;0.51;67.89
77702;BME280;66868;42.708;23.404;2024-01-30T02:54:37;97140.81;;;0.52;68.24
77702;BME280;66868;42.708;23.404;2024-01-30T02:57:02;97140.06;;;0.57;68.38
77702;BME280;66868;42.708;23.404;2024-01-30T02:59:28;97145.19;;;0.65;68.62
77702;BME280;66868;42.708;23.404;2024-01-30T03:01:53;97140.22;;;0.68;68.57
77702;BME280;66868;42.708;23.404;2024-01-30T03:04:19;97146.91;;;0.72;67.98
77702;BME280;66868;42.708;23.404;2024-01-30T03:06:45;97141.16;;;0.76;68.23
77702;BME280;66868;42.708;23.404;2024-01-30T03:09:11;97134.38;;;0.66;68.23
77702;BME280;66868;42.708;23.404;2024-01-30T03:11:37;97131.09;;;0.68;68.44
77702;BME280;66868;42.708;23.404;2024-01-30T03:14:02;97137.81;;;0.74;68.74
77702;BME280;66868;42.708;23.404;2024-01-30T03:16:29;97126.19;;;0.76;68.82
77702;BME280;66868;42.708;23.404;2024-01-30T03:18:54;97115.28;;;0.65;69.09
77702;BME280;66868;42.708;23.404;2024-01-30T03:21:20;97136.94;;;0.72;68.95
77702;BME280;66868;42.708;23.404;2024-01-30T03:23:45;97127.78;;;0.69;69.00
77702;BME280;66868;42.708;23.404;2024-01-30T03:26:11;97133.59;;;0.70;68.97
77702;BME280;66868;42.708;23.404;2024-01-30T03:28:37;97121.84;;;0.60;69.04
77702;BME280;66868;42.708;23.404;2024-01-30T03:31:03;97125.19;;;0.62;68.50
77702;BME280;66868;42.708;23.404;2024-01-30T03:33:28;97126.84;;;0.60;68.16
77702;BME280;66868;42.708;23.404;2024-01-30T03:35:54;97135.13;;;0.60;68.45
77702;BME280;66868;42.708;23.404;2024-01-30T03:38:19;97125.94;;;0.55;68.38
77702;BME280;66868;42.708;23.404;2024-01-30T03:40:45;97124.22;;;0.52;68.60
77702;BME280;66868;42.708;23.404;2024-01-30T03:43:11;97121.63;;;0.43;68.44
77702;BME280;66868;42.708;23.404;2024-01-30T03:45:36;97123.97;;;0.31;68.96
77702;BME280;66868;42.708;23.404;2024-01-30T03:48:02;97122.31;;;0.33;68.30
77702;BME280;66868;42.708;23.404;2024-01-30T03:50:27;97121.44;;;0.29;69.01
77702;BME280;66868;42.708;23.404;2024-01-30T03:52:53;97123.06;;;0.26;69.02
77702;BME280;66868;42.708;23.404;2024-01-30T03:55:18;97123.81;;;0.23;69.01
77702;BME280;66868;42.708;23.404;2024-01-30T03:57:44;97118.00;;;0.21;68.95
77702;BME280;66868;42.708;23.404;2024-01-30T04:00:10;97100.34;;;0.06;69.22
77702;BME280;66868;42.708;23.404;2024-01-30T04:02:35;97115.41;;;0.15;69.92
77702;BME280;66868;42.708;23.404;2024-01-30T04:05:01;97071.75;;;-0.22;69.88
77702;BME280;66868;42.708;23.404;2024-01-30T04:07:26;97113.63;;;0.05;70.08
77702;BME280;66868;42.708;23.404;2024-01-30T04:09:52;97112.75;;;0.02;70.06
77702;BME280;66868;42.708;23.404;2024-01-30T04:12:17;97109.38;;;-0.02;70.21
77702;BME280;66868;42.708;23.404;2024-01-30T04:14:43;97085.06;;;-0.20;70.37
77702;BME280;66868;42.708;23.404;2024-01-30T04:17:09;97071.44;;;-0.41;70.41
77702;BME280;66868;42.708;23.404;2024-01-30T04:19:37;97115.91;;;-0.61;71.34
77702;BME280;66868;42.708;23.404;2024-01-30T04:22:03;97105.16;;;-0.60;71.21
77702;BME280;66868;42.708;23.404;2024-01-30T04:24:28;97117.50;;;-0.63;71.01
77702;BME280;66868;42.708;23.404;2024-01-30T04:26:54;97112.50;;;-0.66;71.66
77702;BME280;66868;42.708;23.404;2024-01-30T04:29:19;97118.34;;;-0.63;71.43
77702;BME280;66868;42.708;23.404;2024-01-30T04:31:45;97121.75;;;-0.58;71.35
77702;BME280;66868;42.708;23.404;2024-01-30T04:34:10;97120.91;;;-0.58;71.30
77702;BME280;66868;42.708;23.404;2024-01-30T04:36:36;97123.28;;;-0.66;70.80
77702;BME280;66868;42.708;23.404;2024-01-30T04:39:01;97124.88;;;-0.68;70.19
77702;BME280;66868;42.708;23.404;2024-01-30T04:41:27;97125.03;;;-0.59;70.40
77702;BME280;66868;42.708;23.404;2024-01-30T04:43:56;97118.38;;;-0.60;70.51
77702;BME280;66868;42.708;23.404;2024-01-30T04:46:22;97110.84;;;-0.64;70.83
77702;BME280;66868;42.708;23.404;2024-01-30T04:48:47;97130.94;;;-0.54;70.11
77702;BME280;66868;42.708;23.404;2024-01-30T04:51:13;97132.66;;;-0.50;69.66
77702;BME280;66868;42.708;23.404;2024-01-30T04:53:38;97130.97;;;-0.51;69.69
77702;BME280;66868;42.708;23.404;2024-01-30T04:56:05;97120.06;;;-0.59;69.27
77702;BME280;66868;42.708;23.404;2024-01-30T04:58:30;97142.66;;;-0.48;68.89
77702;BME280;66868;42.708;23.404;2024-01-30T05:00:56;97142.53;;;-0.56;68.82
77702;BME280;66868;42.708;23.404;2024-01-30T05:03:22;97121.41;;;-0.79;68.80
77702;BME280;66868;42.708;23.404;2024-01-30T05:05:49;97145.63;;;-0.67;69.18
77702;BME280;66868;42.708;23.404;2024-01-30T05:08:15;97139.84;;;-0.66;69.46
77702;BME280;66868;42.708;23.404;2024-01-30T05:10:40;97148.22;;;-0.60;69.26
77702;BME280;66868;42.708;23.404;2024-01-30T05:13:05;97100.56;;;-0.85;69.08
77702;BME280;66868;42.708;23.404;2024-01-30T05:15:31;97144.81;;;-0.66;69.61
77702;BME280;66868;42.708;23.404;2024-01-30T05:17:56;97125.53;;;-0.79;69.70
77702;BME280;66868;42.708;23.404;2024-01-30T05:20:22;97147.09;;;-0.77;70.14
77702;BME280;66868;42.708;23.404;2024-01-30T05:22:47;97146.09;;;-0.88;71.09
77702;BME280;66868;42.708;23.404;2024-01-30T05:25:13;97112.34;;;-1.20;72.02
77702;BME280;66868;42.708;23.404;2024-01-30T05:27:57;97148.44;;;-0.94;71.65
77702;BME280;66868;42.708;23.404;2024-01-30T05:30:23;97140.81;;;-1.03;71.63
77702;BME280;66868;42.708;23.404;2024-01-30T05:32:48;97158.22;;;-1.02;71.53
77702;BME280;66868;42.708;23.404;2024-01-30T05:35:14;97156.78;;;-0.91;71.97
77702;BME280;66868;42.708;23.404;2024-01-30T05:37:40;97133.53;;;-0.94;71.58
77702;BME280;66868;42.708;23.404;2024-01-30T05:40:06;97146.19;;;-0.82;71.43
77702;BME280;66868;42.708;23.404;2024-01-30T05:42:32;97125.97;;;-1.00;71.38
77702;BME280;66868;42.708;23.404;2024-01-30T05:44:57;97152.78;;;-0.84;71.43
77702;BME280;66868;42.708;23.404;2024-01-30T05:47:23;97161.16;;;-0.79;71.39
77702;BME280;66868;42.708;23.404;2024-01-30T05:49:48;97161.06;;;-0.85;71.61
77702;BME280;66868;42.708;23.404;2024-01-30T05:52:14;97164.28;;;-0.89;71.42
77702;BME280;66868;42.708;23.404;2024-01-30T05:54:40;97162.56;;;-0.93;71.84
77702;BME280;66868;42.708;23.404;2024-01-30T05:57:06;97167.63;;;-0.88;72.12
77702;BME280;66868;42.708;23.404;2024-01-30T05:59:31;97159.38;;;-0.86;72.18
77702;BME280;66868;42.708;23.404;2024-01-30T06:01:57;97159.38;;;-0.86;71.54
77702;BME280;66868;42.708;23.404;2024-01-30T06:04:23;97103.28;;;-1.17;71.73
77702;BME280;66868;42.708;23.404;2024-01-30T06:06:48;97159.91;;;-1.02;72.55
77702;BME280;66868;42.708;23.404;2024-01-30T06:09:14;97129.13;;;-1.49;73.52
77702;BME280;66868;42.708;23.404;2024-01-30T06:11:39;97160.22;;;-1.27;73.60
77702;BME280;66868;42.708;23.404;2024-01-30T06:14:05;97129.19;;;-1.46;73.21
77702;BME280;66868;42.708;23.404;2024-01-30T06:16:30;97158.59;;;-1.25;73.59
77702;BME280;66868;42.708;23.404;2024-01-30T06:18:56;97161.28;;;-1.16;73.03
77702;BME280;66868;42.708;23.404;2024-01-30T06:21:23;97145.53;;;-1.15;72.83
77702;BME280;66868;42.708;23.404;2024-01-30T06:23:48;97158.22;;;-1.02;73.08
77702;BME280;66868;42.708;23.404;2024-01-30T06:26:14;97164.22;;;-0.92;72.43
77702;BME280;66868;42.708;23.404;2024-01-30T06:28:39;97145.97;;;-0.94;72.16
77702;BME280;66868;42.708;23.404;2024-01-30T06:31:05;97166.94;;;-0.78;72.04
77702;BME280;66868;42.708;23.404;2024-01-30T06:33:30;97169.53;;;-0.74;71.74
77702;BME280;66868;42.708;23.404;2024-01-30T06:35:56;97159.66;;;-0.71;71.57
77702;BME280;66868;42.708;23.404;2024-01-30T06:38:21;97146.31;;;-0.76;71.49
77702;BME280;66868;42.708;23.404;2024-01-30T06:40:47;97171.38;;;-0.64;71.13
77702;BME280;66868;42.708;23.404;2024-01-30T06:43:12;97163.06;;;-0.66;71.05
77702;BME280;66868;42.708;23.404;2024-01-30T06:45:38;97166.56;;;-0.55;70.89
77702;BME280;66868;42.708;23.404;2024-01-30T06:48:03;97164.19;;;-0.49;70.69
77702;BME280;66868;42.708;23.404;2024-01-30T06:50:29;97157.56;;;-0.48;70.37
77702;BME280;66868;42.708;23.404;2024-01-30T06:52:54;97171.00;;;-0.37;70.44
77702;BME280;66868;42.708;23.404;2024-01-30T06:55:20;97171.16;;;-0.29;70.49
77702;BME280;66868;42.708;23.404;2024-01-30T06:57:45;97160.41;;;-0.28;70.11
77702;BME280;66868;42.708;23.404;2024-01-30T07:00:11;97151.06;;;-0.40;69.42
77702;BME280;66868;42.708;23.404;2024-01-30T07:02:37;97175.34;;;-0.28;69.45
77702;BME280;66868;42.708;23.404;2024-01-30T07:05:03;97159.44;;;-0.35;69.22
77702;BME280;66868;42.708;23.404;2024-01-30T07:07:31;97176.22;;;-0.25;68.63
77702;BME280;66868;42.708;23.404;2024-01-30T07:09:56;97169.66;;;-0.20;69.14
77702;BME280;66868;42.708;23.404;2024-01-30T07:12:22;97143.84;;;-0.26;69.81
77702;BME280;66868;42.708;23.404;2024-01-30T07:14:49;97166.44;;;-0.13;70.86
77702;BME280;66868;42.708;23.404;2024-01-30T07:17:15;97164.06;;;-0.07;70.90
77702;BME280;66868;42.708;23.404;2024-01-30T07:19:41;97172.47;;;0.00;71.07
77702;BME280;66868;42.708;23.404;2024-01-30T07:22:06;97175.81;;;0.02;70.11
77702;BME280;66868;42.708;23.404;2024-01-30T07:24:32;97142.47;;;-0.08;69.55
77702;BME280;66868;42.708;23.404;2024-01-30T07:26:57;97160.97;;;0.10;68.91
77702;BME280;66868;42.708;23.404;2024-01-30T07:29:23;97179.47;;;0.22;67.28
77702;BME280;66868;42.708;23.404;2024-01-30T07:31:48;97131.91;;;0.07;66.89
77702;BME280;66868;42.708;23.404;2024-01-30T07:34:14;97173.81;;;0.32;67.24
77702;BME280;66868;42.708;23.404;2024-01-30T07:36:39;97179.66;;;0.37;67.06
77702;BME280;66868;42.708;23.404;2024-01-30T07:39:04;97156.25;;;0.28;66.69
77702;BME280;66868;42.708;23.404;2024-01-30T07:41:30;97178.16;;;0.49;66.47
77702;BME280;66868;42.708;23.404;2024-01-30T07:43:55;97185.72;;;0.56;67.88
77702;BME280;66868;42.708;23.404;2024-01-30T07:46:21;97160.91;;;0.62;68.50
77702;BME280;66868;42.708;23.404;2024-01-30T07:48:46;97175.22;;;0.77;66.39
77702;BME280;66868;42.708;23.404;2024-01-30T07:51:12;97173.75;;;0.91;66.82
77702;BME280;66868;42.708;23.404;2024-01-30T07:53:37;97180.47;;;0.98;65.47
77702;BME280;66868;42.708;23.404;2024-01-30T07:56:03;97188.06;;;1.06;63.62
77702;BME280;66868;42.708;23.404;2024-01-30T07:58:29;97180.63;;;1.10;63.69
77702;BME280;66868;42.708;23.404;2024-01-30T08:00:54;97179.03;;;1.15;63.95
77702;BME280;66868;42.708;23.404;2024-01-30T08:03:22;97179.97;;;1.26;61.98
77702;BME280;66868;42.708;23.404;2024-01-30T08:05:47;97176.69;;;1.29;61.95
77702;BME280;66868;42.708;23.404;2024-01-30T08:08:13;97181.66;;;1.29;61.36
77702;BME280;66868;42.708;23.404;2024-01-30T08:10:38;97176.72;;;1.33;61.60
77702;BME280;66868;42.708;23.404;2024-01-30T08:13:03;97178.38;;;1.34;61.78
77702;BME280;66868;42.708;23.404;2024-01-30T08:15:29;97182.38;;;1.20;61.29
77702;BME280;66868;42.708;23.404;2024-01-30T08:17:54;97170.00;;;1.28;61.34
77702;BME280;66868;42.708;23.404;2024-01-30T08:20:24;97156.63;;;1.20;60.46
77702;BME280;66868;42.708;23.404;2024-01-30T08:22:49;97172.56;;;1.32;61.08
77702;BME280;66868;42.708;23.404;2024-01-30T08:25:15;97176.78;;;1.38;60.84
77702;BME280;66868;42.708;23.404;2024-01-30T08:27:40;97165.13;;;1.40;61.15
77702;BME280;66868;42.708;23.404;2024-01-30T08:30:06;97163.56;;;1.47;60.86
77702;BME280;66868;42.708;23.404;2024-01-30T08:32:32;97165.25;;;1.51;59.97
77702;BME280;66868;42.708;23.404;2024-01-30T08:34:58;97119.38;;;1.37;59.35
77702;BME280;66868;42.708;23.404;2024-01-30T08:37:24;97167.00;;;1.59;58.50
77702;BME280;66868;42.708;23.404;2024-01-30T08:39:49;97181.22;;;1.68;58.47
77702;BME280;66868;42.708;23.404;2024-01-30T08:42:15;97164.59;;;1.70;58.58
77702;BME280;66868;42.708;23.404;2024-01-30T08:44:41;97162.84;;;1.60;58.24
77702;BME280;66868;42.708;23.404;2024-01-30T08:47:06;97185.31;;;1.63;59.29
77702;BME280;66868;42.708;23.404;2024-01-30T08:49:32;97171.97;;;1.58;59.97
77702;BME280;66868;42.708;23.404;2024-01-30T08:51:57;97184.66;;;1.79;60.30
77702;BME280;66868;42.708;23.404;2024-01-30T08:54:23;97167.06;;;1.68;59.86
77702;BME280;66868;42.708;23.404;2024-01-30T08:56:49;97189.69;;;1.85;59.20
77702;BME280;66868;42.708;23.404;2024-01-30T08:59:14;97140.41;;;1.64;60.01
77702;BME280;66868;42.708;23.404;2024-01-30T09:01:40;97183.16;;;1.99;59.86
77702;BME280;66868;42.708;23.404;2024-01-30T09:04:05;97195.72;;;2.08;60.35
77702;BME280;66868;42.708;23.404;2024-01-30T09:06:31;97193.34;;;2.23;59.94
77702;BME280;66868;42.708;23.404;2024-01-30T09:08:56;97186.78;;;2.38;60.10
77702;BME280;66868;42.708;23.404;2024-01-30T09:11:23;97191.91;;;2.56;59.84
77702;BME280;66868;42.708;23.404;2024-01-30T09:13:48;97180.28;;;2.64;59.19
77702;BME280;66868;42.708;23.404;2024-01-30T09:16:14;97183.72;;;2.84;58.51
77702;BME280;66868;42.708;23.404;2024-01-30T09:18:41;97184.59;;;2.92;58.43
77702;BME280;66868;42.708;23.404;2024-01-30T09:21:07;97177.16;;;3.07;58.36
77702;BME280;66868;42.708;23.404;2024-01-30T09:23:32;97163.00;;;3.11;58.03
77702;BME280;66868;42.708;23.404;2024-01-30T09:25:58;97151.28;;;2.99;58.41
77702;BME280;66868;42.708;23.404;2024-01-30T09:28:24;97168.03;;;3.14;58.36
77702;BME280;66868;42.708;23.404;2024-01-30T09:30:49;97181.41;;;3.24;57.90
77702;BME280;66868;42.708;23.404;2024-01-30T09:33:15;97170.56;;;3.31;58.08
77702;BME280;66868;42.708;23.404;2024-01-30T09:35:40;97111.25;;;2.98;57.99
77702;BME280;66868;42.708;23.404;2024-01-30T09:38:06;97178.94;;;3.39;58.04
77702;BME280;66868;42.708;23.404;2024-01-30T09:40:31;97172.28;;;3.44;57.47
77702;BME280;66868;42.708;23.404;2024-01-30T09:42:58;97133.84;;;3.27;57.23
77702;BME280;66868;42.708;23.404;2024-01-30T09:45:27;97162.25;;;3.47;57.38
77702;BME280;66868;42.708;23.404;2024-01-30T09:47:53;97143.88;;;3.39;57.48
77702;BME280;66868;42.708;23.404;2024-01-30T09:50:19;97147.22;;;3.47;56.13
77702;BME280;66868;42.708;23.404;2024-01-30T09:52:46;97149.72;;;3.42;56.39
77702;BME280;66868;42.708;23.404;2024-01-30T09:55:12;97150.59;;;3.49;56.65
77702;BME280;66868;42.708;23.404;2024-01-30T09:57:38;97148.09;;;3.50;56.20
77702;BME280;66868;42.708;23.404;2024-01-30T10:00:04;97144.75;;;3.53;55.61
77702;BME280;66868;42.708;23.404;2024-01-30T10:02:32;97159.81;;;3.68;55.85
77702;BME280;66868;42.708;23.404;2024-01-30T10:04:59;97147.28;;;3.65;55.41
77702;BME280;66868;42.708;23.404;2024-01-30T10:07:25;97155.63;;;3.79;55.48
77702;BME280;66868;42.708;23.404;2024-01-30T10:09:50;97154.81;;;3.82;54.61
77702;BME280;66868;42.708;23.404;2024-01-30T10:12:16;97146.44;;;3.77;54.78
77702;BME280;66868;42.708;23.404;2024-01-30T10:14:42;97150.59;;;3.79;55.22
77702;BME280;66868;42.708;23.404;2024-01-30T10:17:09;97152.28;;;3.80;55.10
77702;BME280;66868;42.708;23.404;2024-01-30T10:19:39;97153.97;;;3.81;55.32
77702;BME280;66868;42.708;23.404;2024-01-30T10:22:05;97141.44;;;3.83;56.01
77702;BME280;66868;42.708;23.404;2024-01-30T10:24:31;97152.28;;;4.08;55.86
77702;BME280;66868;42.708;23.404;2024-01-30T10:26:56;97157.31;;;4.29;55.55
77702;BME280;66868;42.708;23.404;2024-01-30T10:29:22;97150.59;;;4.43;54.77
77702;BME280;66868;42.708;23.404;2024-01-30T10:32:04;97140.53;;;4.55;53.07
77702;BME280;66868;42.708;23.404;2024-01-30T10:34:31;97144.72;;;4.56;53.00
77702;BME280;66868;42.708;23.404;2024-01-30T10:37:05;97160.56;;;4.67;53.52
77702;BME280;66868;42.708;23.404;2024-01-30T10:39:37;97088.78;;;4.33;53.23
77702;BME280;66868;42.708;23.404;2024-01-30T10:42:04;97158.88;;;4.74;53.38
77702;BME280;66868;42.708;23.404;2024-01-30T10:44:37;97103.75;;;4.54;52.85
77702;BME280;66868;42.708;23.404;2024-01-30T10:47:07;97132.09;;;4.77;53.21
77702;BME280;66868;42.708;23.404;2024-01-30T10:49:37;97145.47;;;4.88;52.80
77702;BME280;66868;42.708;23.404;2024-01-30T10:52:05;97145.44;;;4.92;52.63
77702;BME280;66868;42.708;23.404;2024-01-30T10:54:31;97128.72;;;4.92;53.10
77702;BME280;66868;42.708;23.404;2024-01-30T10:56:59;97086.13;;;4.74;52.98
77702;BME280;66868;42.708;23.404;2024-01-30T10:59:27;97126.16;;;5.03;52.22
77702;BME280;66868;42.708;23.404;2024-01-30T11:01:53;97131.16;;;5.07;51.40
77702;BME280;66868;42.708;23.404;2024-01-30T11:04:19;97127.81;;;5.07;52.46
77702;BME280;66868;42.708;23.404;2024-01-30T11:06:44;97125.25;;;5.16;51.99
77702;BME280;66868;42.708;23.404;2024-01-30T11:09:12;97126.91;;;5.21;52.11
77702;BME280;66868;42.708;23.404;2024-01-30T11:11:56;97116.81;;;5.29;50.88
77702;BME280;66868;42.708;23.404;2024-01-30T11:14:25;97126.84;;;5.29;51.18
77702;BME280;66868;42.708;23.404;2024-01-30T11:16:51;97111.00;;;5.21;50.47
77702;BME280;66868;42.708;23.404;2024-01-30T11:19:22;97096.81;;;5.17;50.79
77702;BME280;66868;42.708;23.404;2024-01-30T11:21:50;97121.88;;;5.26;50.43
77702;BME280;66868;42.708;23.404;2024-01-30T11:24:19;97102.69;;;5.13;50.30
77702;BME280;66868;42.708;23.404;2024-01-30T11:26:48;97111.81;;;5.23;50.22
77702;BME280;66868;42.708;23.404;2024-01-30T11:29:13;97100.16;;;5.16;50.24
77702;BME280;66868;42.708;23.404;2024-01-30T11:31:40;97108.50;;;5.21;51.14
77702;BME280;66868;42.708;23.404;2024-01-30T11:34:06;97092.63;;;5.17;50.89
77702;BME280;66868;42.708;23.404;2024-01-30T11:36:34;97113.53;;;5.21;50.43
77702;BME280;66868;42.708;23.404;2024-01-30T11:39:02;97069.38;;;4.77;50.68
77702;BME280;66868;42.708;23.404;2024-01-30T11:41:29;97059.41;;;4.67;51.51
77702;BME280;66868;42.708;23.404;2024-01-30T11:43:55;97099.44;;;4.88;52.24
77702;BME280;66868;42.708;23.404;2024-01-30T11:46:20;97102.75;;;4.96;52.40
77702;BME280;66868;42.708;23.404;2024-01-30T11:48:46;97105.19;;;5.10;52.35
77702;BME280;66868;42.708;23.404;2024-01-30T11:51:13;97104.34;;;5.14;52.32
77702;BME280;66868;42.708;23.404;2024-01-30T11:53:39;97085.97;;;5.12;51.63
77702;BME280;66868;42.708;23.404;2024-01-30T11:56:06;97093.53;;;5.03;51.30
77702;BME280;66868;42.708;23.404;2024-01-30T11:58:32;97092.59;;;5.20;52.44
77702;BME280;66868;42.708;23.404;2024-01-30T12:00:57;97089.16;;;5.32;52.07
77702;BME280;66868;42.708;23.404;2024-01-30T12:03:23;97089.06;;;5.50;51.15
77702;BME280;66868;42.708;23.404;2024-01-30T12:05:55;97084.94;;;5.39;50.16
77702;BME280;66868;42.708;23.404;2024-01-30T12:08:22;97041.50;;;5.27;50.91
77702;BME280;66868;42.708;23.404;2024-01-30T12:10:58;97044.78;;;5.40;51.22
77702;BME280;66868;42.708;23.404;2024-01-30T12:13:25;97068.00;;;5.66;50.13
77702;BME280;66868;42.708;23.404;2024-01-30T12:15:51;97047.78;;;5.78;53.31
77702;BME280;66868;42.708;23.404;2024-01-30T12:18:18;97052.78;;;5.88;52.50
77702;BME280;66868;42.708;23.404;2024-01-30T12:20:44;97049.38;;;5.95;54.14
77702;BME280;66868;42.708;23.404;2024-01-30T12:23:12;97002.50;;;5.91;50.75
77702;BME280;66868;42.708;23.404;2024-01-30T12:25:38;97034.75;;;6.33;49.97
77702;BME280;66868;42.708;23.404;2024-01-30T12:28:04;97057.94;;;6.56;48.89
77702;BME280;66868;42.708;23.404;2024-01-30T12:30:29;97048.47;;;6.75;48.27
77702;BME280;66868;42.708;23.404;2024-01-30T12:32:55;97047.50;;;6.85;48.16
77702;BME280;66868;42.708;23.404;2024-01-30T12:35:20;97048.16;;;7.01;47.36
77702;BME280;66868;42.708;23.404;2024-01-30T12:37:47;97039.56;;;7.14;46.48
77702;BME280;66868;42.708;23.404;2024-01-30T12:40:14;97044.28;;;7.35;46.89
77702;BME280;66868;42.708;23.404;2024-01-30T12:42:43;97037.34;;;7.51;46.43
77702;BME280;66868;42.708;23.404;2024-01-30T12:45:14;97036.44;;;7.55;45.59
77702;BME280;66868;42.708;23.404;2024-01-30T12:47:41;97039.66;;;7.65;46.24
77702;BME280;66868;42.708;23.404;2024-01-30T12:50:06;97039.38;;;7.81;46.26
77702;BME280;66868;42.708;23.404;2024-01-30T12:52:32;97035.72;;;7.99;45.26